Flight Track Log - Related Links

Times and Time Zones

All times are in EDT time to prevent confusion due to time zone crossing. See the CHQ6096 flight status page for this flight to view local times or setup timezone preferences in your user account.

Time Position Orientation Groundspeed Altitude Reporting Facility
EDT Latitude Longitude Course Direction KTS MPH feet Rate Location/Type
Thu 10:16:36 PM 40.7833 -73.8833 264° West 161 185 500  Level New York TRACON
Thu 10:17:36 PM 40.8333 -73.9167 333° Northwest 192 221 2,700 2,350 Climbing New York TRACON
Thu 10:18:36 PM 40.8833 -73.9667 323° Northwest 210 242 5,200 2,400 Climbing New York TRACON
Thu 10:19:00 PM 40.7476 -74.2464 264° West  Level FlightAware Approximate
Thu 10:19:36 PM 40.9000 -74.0333 288° West 220 253 7,500  Level New York TRACON
Thu 10:20:00 PM 40.7369 -74.3744 264° West  Level FlightAware Approximate
Thu 10:20:36 PM 40.9000 -74.1167 270° West 259 298 9,200  Level New York TRACON
Thu 10:21:00 PM 40.7268 -74.5025 264° West  Level FlightAware Approximate
Thu 10:21:36 PM 40.8833 -74.2167 258° West 281 323 11,100  Level New York TRACON
Thu 10:22:36 PM 40.8667 -74.3333 259° West 308 354 12,500 1,250 Climbing New York TRACON
Thu 10:23:36 PM 40.8333 -74.4333 246° West 332 382 13,600 1,100 Climbing New York TRACON
Thu 10:24:36 PM 40.8000 -74.5667 252° West 347 399 14,700 1,049 Climbing New York TRACON
Thu 10:25:19 PM 40.7878 -74.6411 258° West 342 394 15,400 1,049 Climbing New York Center
Thu 10:26:19 PM 40.7586 -74.7653 253° West 349 402 16,500 1,128 Climbing New York Center
Thu 10:27:16 PM 40.7272 -74.8950 252° West 362 417 17,600 1,119 Climbing New York Center
Thu 10:28:17 PM 40.6831 -75.0183 245° Southwest 375 432 18,700 1,024 Climbing New York Center
Thu 10:29:19 PM 40.6308 -75.1408 241° Southwest 381 438 19,700 1,050 Climbing New York Center
Thu 10:30:17 PM 40.5783 -75.2603 240° Southwest 381 438 20,800 1,109 Climbing New York Center
Thu 10:31:18 PM 40.5236 -75.3850 240° Southwest 387 445 21,900 1,100 Climbing New York Center
Thu 10:32:17 PM 40.4686 -75.5097 240° Southwest 387 445 23,000 1,091 Climbing New York Center
Thu 10:33:19 PM 40.4133 -75.6339 240° Southwest 387 445 24,100 1,100 Climbing New York Center
Thu 10:34:17 PM 40.3603 -75.7583 241° Southwest 387 445 25,200 1,059 Climbing New York Center
Thu 10:35:18 PM 40.3092 -75.8825 242° Southwest 392 451 26,200 1,033 Climbing New York Center
Thu 10:36:19 PM 40.2578 -76.0094 242° Southwest 392 451 27,300 1,109 Climbing New York Center
Thu 10:37:17 PM 40.2147 -76.1339 246° West 386 444 28,400 1,017 Climbing New York Center
Thu 10:38:17 PM 40.1767 -76.2314 243° Southwest 381 438 29,300 1,063 Climbing New York Center
Thu 10:40:29 PM 40.0767 -76.5294 246° West 371 427 31,800 1,156 Climbing Washington Center
Thu 10:41:29 PM 40.0278 -76.6508 242° Southwest 384 442 33,000 1,091 Climbing Washington Center
Thu 10:42:30 PM 39.9808 -76.7747 244° Southwest 384 442 34,000 496 Climbing Washington Center
Thu 10:43:30 PM 39.9381 -76.8875 244° Southwest 384 442 34,000  Level Washington Center
Thu 10:44:31 PM 39.8886 -77.0219 244° Southwest 390 449 34,000  Level Washington Center
Thu 10:45:31 PM 39.8367 -77.1642 245° Southwest 413 475 34,000  Level Washington Center
Thu 10:46:30 PM 39.7869 -77.2981 244° Southwest 423 487 34,000  Level Washington Center
Thu 10:47:29 PM 39.7350 -77.4344 244° Southwest 423 487 34,000  Level Washington Center
Thu 10:48:29 PM 39.6850 -77.5706 245° Southwest 423 487 34,000  Level Washington Center
Thu 10:49:30 PM 39.6347 -77.7039 244° Southwest 423 487 34,000  Level Washington Center
Thu 10:50:31 PM 39.5903 -77.8589 250° West 418 481 34,000  Level Washington Center
Thu 10:51:29 PM 39.5500 -77.9950 249° West 413 475 34,000  Level Washington Center
Thu 10:52:29 PM 39.5119 -78.1281 250° West 408 470 34,000  Level Washington Center
Thu 10:53:30 PM 39.4736 -78.2586 249° West 403 464 34,000  Level Washington Center
Thu 10:54:30 PM 39.4333 -78.3914 249° West 403 464 34,000  Level Washington Center
Thu 10:55:30 PM 39.3947 -78.5217 249° West 403 464 34,000  Level Washington Center
Thu 10:56:29 PM 39.3539 -78.6514 248° West 403 464 34,000  Level Washington Center
Thu 10:57:30 PM 39.3131 -78.7864 249° West 403 464 34,000  Level Washington Center
Thu 10:58:30 PM 39.2717 -78.9214 248° West 414 476 34,000  Level Washington Center
Thu 10:59:29 PM 39.2281 -79.0614 248° West 414 476 34,000  Level Washington Center
Thu 11:00:30 PM 39.1867 -79.1961 248° West 414 476 34,000  Level Washington Center
Thu 11:01:30 PM 39.1539 -79.3150 250° West 409 471 34,000  Level Washington Center
Thu 11:02:31 PM 39.1122 -79.4467 248° West 403 464 34,000  Level Washington Center
Thu 11:03:29 PM 39.0703 -79.5808 248° West 408 470 34,000  Level Washington Center
Thu 11:04:30 PM 39.0214 -79.7331 248° West 416 479 34,000  Level Washington Center
Thu 11:05:30 PM 38.9769 -79.8694 247° West 416 479 34,000  Level Washington Center
Thu 11:06:31 PM 38.9414 -79.9900 249° West 416 479 34,000  Level Washington Center
Thu 11:07:29 PM 38.8967 -80.1261 247° West 421 484 34,000  Level Washington Center
Thu 11:08:22 PM 38.8533 -80.2472 245° Southwest 402 463 34,000  Level Indianapolis Center
Thu 11:09:23 PM 38.8106 -80.3789 247° West 399 459 34,000  Level Indianapolis Center
Thu 11:10:24 PM 38.7678 -80.5133 248° West 405 466 34,000  Level Indianapolis Center
Thu 11:11:26 PM 38.7233 -80.6511 248° West 416 479 34,000  Level Indianapolis Center
Thu 11:12:27 PM 38.6786 -80.7878 247° West 415 478 34,000  Level Indianapolis Center
Thu 11:13:28 PM 38.6553 -80.9311 258° West 413 475 34,000  Level Indianapolis Center
Thu 11:14:30 PM 38.6342 -81.0739 259° West 408 470 34,000  Level Indianapolis Center
Thu 11:15:31 PM 38.6114 -81.2175 259° West 409 471 34,000  Level Indianapolis Center
Thu 11:16:32 PM 38.5906 -81.3542 259° West 389 448 34,000 -738 Level Indianapolis Center
Thu 11:17:33 PM 38.5678 -81.4964 258° West 397 457 32,500 -1,610 Descending Indianapolis Center
Thu 11:18:35 PM 38.5464 -81.6428 259° West 408 470 30,700 -1,220 Descending Indianapolis Center
Thu 11:19:36 PM 38.5233 -81.7858 258° West 407 468 30,000 -344 Descending Indianapolis Center
Thu 11:20:37 PM 38.5008 -81.9275 259° West 405 466 30,000  Level Indianapolis Center
Thu 11:21:39 PM 38.4778 -82.0703 258° West 409 471 30,000  Level Indianapolis Center
Thu 11:22:40 PM 38.4539 -82.2136 258° West 411 473 30,000  Level Indianapolis Center
Thu 11:23:41 PM 38.4261 -82.3853 258° West 412 474 30,000  Level Indianapolis Center
Thu 11:24:42 PM 38.4039 -82.5167 258° West 411 473 30,000  Level Indianapolis Center
Thu 11:25:44 PM 38.3800 -82.6611 258° West 416 479 30,000  Level Indianapolis Center
Thu 11:26:45 PM 38.3561 -82.8022 258° West 409 471 30,000  Level Indianapolis Center
Thu 11:27:46 PM 38.3278 -82.9719 258° West 420 483 30,000 -878 Level Indianapolis Center
Thu 11:28:48 PM 38.3036 -83.1136 258° West 414 476 28,200 -1,854 Descending Indianapolis Center
Thu 11:29:49 PM 38.2789 -83.2531 257° West 407 468 26,200 -2,803 Descending Indianapolis Center
Thu 11:30:50 PM 38.2542 -83.3972 258° West 415 478 22,500 -3,512 Descending Indianapolis Center
Thu 11:31:52 PM 38.2286 -83.5400 257° West 415 478 19,000 -3,171 Descending Indianapolis Center
Thu 11:32:53 PM 38.2061 -83.6700 258° West 384 442 16,000 -3,098 Descending Indianapolis Center
Thu 11:33:54 PM 38.1850 -83.7908 258° West 354 407 12,700 -2,410 Descending Indianapolis Center
Thu 11:34:55 PM 38.1664 -83.9075 259° West 340 391 11,100 -1,073 Descending Indianapolis Center
Thu 11:35:57 PM 38.1575 -84.0492 265° West 346 398 10,500 -634 Descending Indianapolis Center
Thu 11:36:58 PM 38.1492 -84.1578 264° West 307 353 9,800 -1,525 Descending Indianapolis Center
Thu 11:37:59 PM 38.1431 -84.2503 265° West 267 307 7,400 -2,390 Descending Indianapolis Center
Thu 11:39:01 PM 38.1358 -84.3392 264° West 259 298 4,900 -2,419 Descending Indianapolis Center

Login

Don't have an account? Register now (free) for customized features, flight alerts, and more!